sensor_id;sensor_type;location;lat;lon;timestamp;temperature;humidity
15160;DHT22;7680;48.800;9.680;2023-03-03T00:01:09;0.90;99.90
15160;DHT22;7680;48.800;9.680;2023-03-03T00:03:42;0.90;99.90
15160;DHT22;7680;48.800;9.680;2023-03-03T00:06:16;0.90;99.90
15160;DHT22;7680;48.800;9.680;2023-03-03T00:08:49;0.80;99.90
15160;DHT22;7680;48.800;9.680;2023-03-03T00:11:22;0.80;99.90
15160;DHT22;7680;48.800;9.680;2023-03-03T00:13:57;0.80;99.90
15160;DHT22;7680;48.800;9.680;2023-03-03T00:16:34;0.70;99.90
15160;DHT22;7680;48.800;9.680;2023-03-03T00:19:14;0.60;99.90
15160;DHT22;7680;48.800;9.680;2023-03-03T00:21:51;0.60;99.90
15160;DHT22;7680;48.800;9.680;2023-03-03T00:24:30;0.60;99.90
15160;DHT22;7680;48.800;9.680;2023-03-03T00:27:16;0.60;99.90
15160;DHT22;7680;48.800;9.680;2023-03-03T00:29:57;0.60;99.90
15160;DHT22;7680;48.800;9.680;2023-03-03T00:32:37;0.60;99.90
15160;DHT22;7680;48.800;9.680;2023-03-03T00:35:23;0.50;99.90
15160;DHT22;7680;48.800;9.680;2023-03-03T00:37:59;0.50;99.90
15160;DHT22;7680;48.800;9.680;2023-03-03T00:40:35;0.50;99.90
15160;DHT22;7680;48.800;9.680;2023-03-03T00:43:17;0.50;99.90
15160;DHT22;7680;48.800;9.680;2023-03-03T00:45:53;0.50;99.90
15160;DHT22;7680;48.800;9.680;2023-03-03T00:48:29;0.50;99.90
15160;DHT22;7680;48.800;9.680;2023-03-03T00:51:15;0.50;99.90
15160;DHT22;7680;48.800;9.680;2023-03-03T00:53:57;0.50;99.90
15160;DHT22;7680;48.800;9.680;2023-03-03T00:56:30;0.50;99.90
15160;DHT22;7680;48.800;9.680;2023-03-03T00:59:03;0.40;99.90
15160;DHT22;7680;48.800;9.680;2023-03-03T01:01:39;0.30;99.90
15160;DHT22;7680;48.800;9.680;2023-03-03T01:04:13;0.30;99.90
15160;DHT22;7680;48.800;9.680;2023-03-03T01:06:46;0.40;99.90
15160;DHT22;7680;48.800;9.680;2023-03-03T01:09:21;0.40;99.90
15160;DHT22;7680;48.800;9.680;2023-03-03T01:11:54;0.40;99.90
15160;DHT22;7680;48.800;9.680;2023-03-03T01:14:27;0.30;99.90
15160;DHT22;7680;48.800;9.680;2023-03-03T01:17:01;0.30;99.90
15160;DHT22;7680;48.800;9.680;2023-03-03T01:19:35;0.20;99.90
15160;DHT22;7680;48.800;9.680;2023-03-03T01:22:08;0.20;99.90
15160;DHT22;7680;48.800;9.680;2023-03-03T01:24:41;0.20;99.90
15160;DHT22;7680;48.800;9.680;2023-03-03T01:27:14;0.20;99.90
15160;DHT22;7680;48.800;9.680;2023-03-03T01:29:47;0.20;99.90
15160;DHT22;7680;48.800;9.680;2023-03-03T01:32:22;0.20;99.90
15160;DHT22;7680;48.800;9.680;2023-03-03T01:34:55;0.20;99.90
15160;DHT22;7680;48.800;9.680;2023-03-03T01:37:29;0.20;99.90
15160;DHT22;7680;48.800;9.680;2023-03-03T01:40:03;0.30;99.90
15160;DHT22;7680;48.800;9.680;2023-03-03T01:42:39;0.30;99.90
15160;DHT22;7680;48.800;9.680;2023-03-03T01:45:23;0.30;99.90
15160;DHT22;7680;48.800;9.680;2023-03-03T01:48:03;0.30;99.90
15160;DHT22;7680;48.800;9.680;2023-03-03T01:50:41;0.30;99.90
15160;DHT22;7680;48.800;9.680;2023-03-03T01:53:19;0.40;99.90
15160;DHT22;7680;48.800;9.680;2023-03-03T01:55:54;0.40;99.90
15160;DHT22;7680;48.800;9.680;2023-03-03T01:58:31;0.40;99.90
15160;DHT22;7680;48.800;9.680;2023-03-03T02:01:09;0.40;99.90
15160;DHT22;7680;48.800;9.680;2023-03-03T02:03:47;0.40;99.90
15160;DHT22;7680;48.800;9.680;2023-03-03T02:06:24;0.40;99.90
15160;DHT22;7680;48.800;9.680;2023-03-03T02:09:03;0.40;99.90
15160;DHT22;7680;48.800;9.680;2023-03-03T02:11:41;0.40;99.90
15160;DHT22;7680;48.800;9.680;2023-03-03T02:14:16;0.40;99.90
15160;DHT22;7680;48.800;9.680;2023-03-03T02:16:50;0.40;99.90
15160;DHT22;7680;48.800;9.680;2023-03-03T02:19:32;0.50;99.90
15160;DHT22;7680;48.800;9.680;2023-03-03T02:22:08;0.50;99.90
15160;DHT22;7680;48.800;9.680;2023-03-03T02:24:45;0.60;99.90
15160;DHT22;7680;48.800;9.680;2023-03-03T02:27:22;0.60;99.90
15160;DHT22;7680;48.800;9.680;2023-03-03T02:29:55;0.60;99.90
15160;DHT22;7680;48.800;9.680;2023-03-03T02:32:29;0.60;99.90
15160;DHT22;7680;48.800;9.680;2023-03-03T02:35:30;0.60;99.90
15160;DHT22;7680;48.800;9.680;2023-03-03T02:38:11;0.60;99.90
15160;DHT22;7680;48.800;9.680;2023-03-03T02:40:58;0.50;99.90
15160;DHT22;7680;48.800;9.680;2023-03-03T02:43:42;0.60;99.90
15160;DHT22;7680;48.800;9.680;2023-03-03T02:46:18;0.60;99.90
15160;DHT22;7680;48.800;9.680;2023-03-03T02:48:51;0.70;99.90
15160;DHT22;7680;48.800;9.680;2023-03-03T02:51:25;0.70;99.90
15160;DHT22;7680;48.800;9.680;2023-03-03T02:53:58;0.70;99.90
15160;DHT22;7680;48.800;9.680;2023-03-03T02:56:31;0.70;99.90
15160;DHT22;7680;48.800;9.680;2023-03-03T02:59:05;0.70;99.90
15160;DHT22;7680;48.800;9.680;2023-03-03T03:01:39;0.70;99.90
15160;DHT22;7680;48.800;9.680;2023-03-03T03:04:14;0.70;99.90
15160;DHT22;7680;48.800;9.680;2023-03-03T03:06:49;0.70;99.90
15160;DHT22;7680;48.800;9.680;2023-03-03T03:09:23;0.80;99.90
15160;DHT22;7680;48.800;9.680;2023-03-03T03:11:56;0.90;99.90
15160;DHT22;7680;48.800;9.680;2023-03-03T03:14:34;0.90;99.90
15160;DHT22;7680;48.800;9.680;2023-03-03T03:17:07;0.90;99.90
15160;DHT22;7680;48.800;9.680;2023-03-03T03:19:42;0.90;99.90
15160;DHT22;7680;48.800;9.680;2023-03-03T03:22:15;0.90;99.90
15160;DHT22;7680;48.800;9.680;2023-03-03T03:24:50;0.90;99.90
15160;DHT22;7680;48.800;9.680;2023-03-03T03:27:23;0.90;99.90
15160;DHT22;7680;48.800;9.680;2023-03-03T03:29:57;0.90;99.90
15160;DHT22;7680;48.800;9.680;2023-03-03T03:32:30;1.00;99.90
15160;DHT22;7680;48.800;9.680;2023-03-03T03:35:04;1.00;99.90
15160;DHT22;7680;48.800;9.680;2023-03-03T03:37:38;1.00;99.90
15160;DHT22;7680;48.800;9.680;2023-03-03T03:40:11;1.10;99.90
15160;DHT22;7680;48.800;9.680;2023-03-03T03:42:45;1.10;99.90
15160;DHT22;7680;48.800;9.680;2023-03-03T03:45:19;1.10;99.90
15160;DHT22;7680;48.800;9.680;2023-03-03T03:47:53;1.20;99.90
15160;DHT22;7680;48.800;9.680;2023-03-03T03:50:26;1.20;99.90
15160;DHT22;7680;48.800;9.680;2023-03-03T03:52:59;1.20;99.90
15160;DHT22;7680;48.800;9.680;2023-03-03T03:55:32;1.10;99.90
15160;DHT22;7680;48.800;9.680;2023-03-03T03:58:05;1.20;99.90
15160;DHT22;7680;48.800;9.680;2023-03-03T04:00:40;1.20;99.90
15160;DHT22;7680;48.800;9.680;2023-03-03T04:03:14;1.10;99.90
15160;DHT22;7680;48.800;9.680;2023-03-03T04:05:47;1.10;99.90
15160;DHT22;7680;48.800;9.680;2023-03-03T04:08:21;1.10;99.90
15160;DHT22;7680;48.800;9.680;2023-03-03T04:10:54;1.10;99.90
15160;DHT22;7680;48.800;9.680;2023-03-03T04:13:28;1.10;99.90
15160;DHT22;7680;48.800;9.680;2023-03-03T04:16:04;1.10;99.90
15160;DHT22;7680;48.800;9.680;2023-03-03T04:18:37;1.10;99.90
15160;DHT22;7680;48.800;9.680;2023-03-03T04:21:11;1.10;99.90
15160;DHT22;7680;48.800;9.680;2023-03-03T04:23:45;1.10;99.90
15160;DHT22;7680;48.800;9.680;2023-03-03T04:26:18;1.10;99.90
15160;DHT22;7680;48.800;9.680;2023-03-03T04:28:51;1.20;99.90
15160;DHT22;7680;48.800;9.680;2023-03-03T04:31:25;1.10;99.90
15160;DHT22;7680;48.800;9.680;2023-03-03T04:33:59;1.10;99.90
15160;DHT22;7680;48.800;9.680;2023-03-03T04:36:32;1.20;99.90
15160;DHT22;7680;48.800;9.680;2023-03-03T04:39:05;1.20;99.90
15160;DHT22;7680;48.800;9.680;2023-03-03T04:41:38;1.20;99.90
15160;DHT22;7680;48.800;9.680;2023-03-03T04:44:11;1.20;99.90
15160;DHT22;7680;48.800;9.680;2023-03-03T04:46:45;1.20;99.90
15160;DHT22;7680;48.800;9.680;2023-03-03T04:49:19;1.20;99.90
15160;DHT22;7680;48.800;9.680;2023-03-03T04:51:52;1.20;99.90
15160;DHT22;7680;48.800;9.680;2023-03-03T04:54:25;1.20;99.90
15160;DHT22;7680;48.800;9.680;2023-03-03T04:56:58;1.20;99.90
15160;DHT22;7680;48.800;9.680;2023-03-03T04:59:31;1.20;99.90
15160;DHT22;7680;48.800;9.680;2023-03-03T05:02:05;1.20;99.90
15160;DHT22;7680;48.800;9.680;2023-03-03T05:04:38;1.20;99.90
15160;DHT22;7680;48.800;9.680;2023-03-03T05:07:12;1.20;99.90
15160;DHT22;7680;48.800;9.680;2023-03-03T05:09:45;1.20;99.90
15160;DHT22;7680;48.800;9.680;2023-03-03T05:12:18;1.30;99.90
15160;DHT22;7680;48.800;9.680;2023-03-03T05:14:52;1.30;99.90
15160;DHT22;7680;48.800;9.680;2023-03-03T05:17:26;1.30;99.90
15160;DHT22;7680;48.800;9.680;2023-03-03T05:19:59;1.30;99.90
15160;DHT22;7680;48.800;9.680;2023-03-03T05:22:32;1.30;99.90
15160;DHT22;7680;48.800;9.680;2023-03-03T05:25:06;1.40;99.90
15160;DHT22;7680;48.800;9.680;2023-03-03T05:27:40;1.40;99.90
15160;DHT22;7680;48.800;9.680;2023-03-03T05:30:14;1.40;99.90
15160;DHT22;7680;48.800;9.680;2023-03-03T05:32:48;1.40;99.90
15160;DHT22;7680;48.800;9.680;2023-03-03T05:35:22;1.40;99.90
15160;DHT22;7680;48.800;9.680;2023-03-03T05:37:55;1.40;99.90
15160;DHT22;7680;48.800;9.680;2023-03-03T05:40:28;1.30;99.90
15160;DHT22;7680;48.800;9.680;2023-03-03T05:43:02;1.30;99.90
15160;DHT22;7680;48.800;9.680;2023-03-03T05:45:35;1.40;99.90
15160;DHT22;7680;48.800;9.680;2023-03-03T05:48:09;1.40;99.90
15160;DHT22;7680;48.800;9.680;2023-03-03T05:50:42;1.40;99.90
15160;DHT22;7680;48.800;9.680;2023-03-03T05:53:16;1.40;99.90
15160;DHT22;7680;48.800;9.680;2023-03-03T05:55:49;1.40;99.90
15160;DHT22;7680;48.800;9.680;2023-03-03T05:58:22;1.40;99.90
15160;DHT22;7680;48.800;9.680;2023-03-03T06:00:55;1.50;99.90
15160;DHT22;7680;48.800;9.680;2023-03-03T06:03:29;1.50;99.90
15160;DHT22;7680;48.800;9.680;2023-03-03T06:06:03;1.50;99.90
15160;DHT22;7680;48.800;9.680;2023-03-03T06:08:36;1.50;99.90
15160;DHT22;7680;48.800;9.680;2023-03-03T06:11:09;1.60;99.90
15160;DHT22;7680;48.800;9.680;2023-03-03T06:13:43;1.60;99.90
15160;DHT22;7680;48.800;9.680;2023-03-03T06:16:16;1.50;99.90
15160;DHT22;7680;48.800;9.680;2023-03-03T06:18:51;1.60;99.90
15160;DHT22;7680;48.800;9.680;2023-03-03T06:21:24;1.60;99.90
15160;DHT22;7680;48.800;9.680;2023-03-03T06:23:57;1.60;99.90
15160;DHT22;7680;48.800;9.680;2023-03-03T06:26:31;1.60;99.90
15160;DHT22;7680;48.800;9.680;2023-03-03T06:29:04;1.60;99.90
15160;DHT22;7680;48.800;9.680;2023-03-03T06:31:37;1.60;99.90
15160;DHT22;7680;48.800;9.680;2023-03-03T06:34:12;1.60;99.90
15160;DHT22;7680;48.800;9.680;2023-03-03T06:36:45;1.70;99.90
15160;DHT22;7680;48.800;9.680;2023-03-03T06:39:19;1.70;99.90
15160;DHT22;7680;48.800;9.680;2023-03-03T06:41:52;1.70;99.90
15160;DHT22;7680;48.800;9.680;2023-03-03T06:44:25;1.70;99.90
15160;DHT22;7680;48.800;9.680;2023-03-03T06:46:59;1.70;99.90
15160;DHT22;7680;48.800;9.680;2023-03-03T06:49:34;1.80;99.90
15160;DHT22;7680;48.800;9.680;2023-03-03T06:52:11;1.80;99.90
15160;DHT22;7680;48.800;9.680;2023-03-03T06:54:46;1.80;99.90
15160;DHT22;7680;48.800;9.680;2023-03-03T06:57:24;1.80;99.90
15160;DHT22;7680;48.800;9.680;2023-03-03T07:00:09;1.80;99.90
15160;DHT22;7680;48.800;9.680;2023-03-03T07:02:46;1.90;99.90
15160;DHT22;7680;48.800;9.680;2023-03-03T07:05:23;1.90;99.90
15160;DHT22;7680;48.800;9.680;2023-03-03T07:07:59;1.90;99.90
15160;DHT22;7680;48.800;9.680;2023-03-03T07:10:32;1.90;99.90
15160;DHT22;7680;48.800;9.680;2023-03-03T07:13:16;1.90;99.90
15160;DHT22;7680;48.800;9.680;2023-03-03T07:15:52;2.00;99.90
15160;DHT22;7680;48.800;9.680;2023-03-03T07:18:35;2.00;99.90
15160;DHT22;7680;48.800;9.680;2023-03-03T07:21:18;2.00;99.90
15160;DHT22;7680;48.800;9.680;2023-03-03T07:23:53;2.10;99.90
15160;DHT22;7680;48.800;9.680;2023-03-03T07:26:28;2.10;99.90
15160;DHT22;7680;48.800;9.680;2023-03-03T07:29:15;2.10;99.90
15160;DHT22;7680;48.800;9.680;2023-03-03T07:31:54;2.20;99.90
15160;DHT22;7680;48.800;9.680;2023-03-03T07:34:34;2.20;99.90
15160;DHT22;7680;48.800;9.680;2023-03-03T07:37:16;2.30;99.90
15160;DHT22;7680;48.800;9.680;2023-03-03T07:39:52;2.40;99.90
15160;DHT22;7680;48.800;9.680;2023-03-03T07:42:27;2.40;99.90
15160;DHT22;7680;48.800;9.680;2023-03-03T07:45:22;2.50;99.90
15160;DHT22;7680;48.800;9.680;2023-03-03T07:48:03;2.60;99.90
15160;DHT22;7680;48.800;9.680;2023-03-03T07:50:40;2.60;99.90
15160;DHT22;7680;48.800;9.680;2023-03-03T07:53:22;2.60;99.90
15160;DHT22;7680;48.800;9.680;2023-03-03T07:55:58;2.80;99.90
15160;DHT22;7680;48.800;9.680;2023-03-03T07:58:37;2.90;99.90
15160;DHT22;7680;48.800;9.680;2023-03-03T08:01:36;3.00;99.90
15160;DHT22;7680;48.800;9.680;2023-03-03T08:04:19;3.00;99.90
15160;DHT22;7680;48.800;9.680;2023-03-03T08:06:56;3.10;99.90
15160;DHT22;7680;48.800;9.680;2023-03-03T08:09:37;3.20;99.90
15160;DHT22;7680;48.800;9.680;2023-03-03T08:12:37;3.30;99.90
15160;DHT22;7680;48.800;9.680;2023-03-03T08:15:30;3.40;99.90
15160;DHT22;7680;48.800;9.680;2023-03-03T08:18:19;3.50;99.90
15160;DHT22;7680;48.800;9.680;2023-03-03T08:20:57;3.50;99.90
15160;DHT22;7680;48.800;9.680;2023-03-03T08:23:30;3.70;99.90
15160;DHT22;7680;48.800;9.680;2023-03-03T08:26:05;4.10;99.90
15160;DHT22;7680;48.800;9.680;2023-03-03T08:28:39;4.40;99.90
15160;DHT22;7680;48.800;9.680;2023-03-03T08:31:12;4.60;99.90
15160;DHT22;7680;48.800;9.680;2023-03-03T08:33:58;4.90;99.90
15160;DHT22;7680;48.800;9.680;2023-03-03T08:36:31;5.10;99.90
15160;DHT22;7680;48.800;9.680;2023-03-03T08:39:05;5.20;99.90
15160;DHT22;7680;48.800;9.680;2023-03-03T08:41:41;5.40;99.90
15160;DHT22;7680;48.800;9.680;2023-03-03T08:44:15;5.30;99.90
15160;DHT22;7680;48.800;9.680;2023-03-03T08:46:48;5.30;99.90
15160;DHT22;7680;48.800;9.680;2023-03-03T08:49:21;5.30;99.90
15160;DHT22;7680;48.800;9.680;2023-03-03T08:51:54;5.40;99.90
15160;DHT22;7680;48.800;9.680;2023-03-03T08:54:27;5.60;99.90
15160;DHT22;7680;48.800;9.680;2023-03-03T08:57:02;5.40;99.90
15160;DHT22;7680;48.800;9.680;2023-03-03T08:59:35;5.60;99.90
15160;DHT22;7680;48.800;9.680;2023-03-03T09:02:09;5.50;99.90
15160;DHT22;7680;48.800;9.680;2023-03-03T09:04:42;5.80;99.90
15160;DHT22;7680;48.800;9.680;2023-03-03T09:07:16;5.70;99.90
15160;DHT22;7680;48.800;9.680;2023-03-03T09:09:49;5.70;99.90
15160;DHT22;7680;48.800;9.680;2023-03-03T09:12:29;5.60;99.90
15160;DHT22;7680;48.800;9.680;2023-03-03T09:15:16;5.70;99.90
15160;DHT22;7680;48.800;9.680;2023-03-03T09:17:52;5.80;99.90
15160;DHT22;7680;48.800;9.680;2023-03-03T09:20:33;5.80;99.90
15160;DHT22;7680;48.800;9.680;2023-03-03T09:23:30;5.90;99.90
15160;DHT22;7680;48.800;9.680;2023-03-03T09:26:27;5.90;99.90
15160;DHT22;7680;48.800;9.680;2023-03-03T09:29:17;6.00;99.90
15160;DHT22;7680;48.800;9.680;2023-03-03T09:31:55;6.00;99.90
15160;DHT22;7680;48.800;9.680;2023-03-03T09:34:37;6.00;99.90
15160;DHT22;7680;48.800;9.680;2023-03-03T09:37:18;6.20;99.90
15160;DHT22;7680;48.800;9.680;2023-03-03T09:39:55;6.30;99.90
15160;DHT22;7680;48.800;9.680;2023-03-03T09:42:43;6.20;99.90
15160;DHT22;7680;48.800;9.680;2023-03-03T09:45:41;6.30;99.90
15160;DHT22;7680;48.800;9.680;2023-03-03T09:48:41;6.40;99.90
15160;DHT22;7680;48.800;9.680;2023-03-03T09:51:31;6.50;99.90
15160;DHT22;7680;48.800;9.680;2023-03-03T09:54:24;6.60;99.90
15160;DHT22;7680;48.800;9.680;2023-03-03T09:57:10;6.60;99.90
15160;DHT22;7680;48.800;9.680;2023-03-03T10:00:08;6.60;99.90
15160;DHT22;7680;48.800;9.680;2023-03-03T10:03:16;6.70;99.90
15160;DHT22;7680;48.800;9.680;2023-03-03T10:06:03;6.80;99.90
15160;DHT22;7680;48.800;9.680;2023-03-03T10:08:53;6.90;99.90
15160;DHT22;7680;48.800;9.680;2023-03-03T10:11:38;6.80;99.90
15160;DHT22;7680;48.800;9.680;2023-03-03T10:14:26;6.90;99.90
15160;DHT22;7680;48.800;9.680;2023-03-03T10:17:19;7.10;99.90
15160;DHT22;7680;48.800;9.680;2023-03-03T10:20:10;7.00;99.90
15160;DHT22;7680;48.800;9.680;2023-03-03T10:22:51;6.80;99.90
15160;DHT22;7680;48.800;9.680;2023-03-03T10:25:34;6.90;99.90
15160;DHT22;7680;48.800;9.680;2023-03-03T10:28:27;7.00;99.90
15160;DHT22;7680;48.800;9.680;2023-03-03T10:31:13;7.10;99.90
15160;DHT22;7680;48.800;9.680;2023-03-03T10:33:56;7.60;99.90
15160;DHT22;7680;48.800;9.680;2023-03-03T10:36:42;7.50;99.90
15160;DHT22;7680;48.800;9.680;2023-03-03T10:39:36;7.50;99.90
15160;DHT22;7680;48.800;9.680;2023-03-03T10:42:39;7.90;99.90
15160;DHT22;7680;48.800;9.680;2023-03-03T10:45:34;7.80;99.90
15160;DHT22;7680;48.800;9.680;2023-03-03T10:48:35;7.90;99.90
15160;DHT22;7680;48.800;9.680;2023-03-03T10:51:23;8.30;99.90
15160;DHT22;7680;48.800;9.680;2023-03-03T10:54:12;8.50;99.90
15160;DHT22;7680;48.800;9.680;2023-03-03T10:57:00;8.60;99.90
15160;DHT22;7680;48.800;9.680;2023-03-03T10:59:51;8.80;99.90
15160;DHT22;7680;48.800;9.680;2023-03-03T11:02:40;8.90;99.90
15160;DHT22;7680;48.800;9.680;2023-03-03T11:05:28;9.10;99.90
15160;DHT22;7680;48.800;9.680;2023-03-03T11:08:08;9.10;99.90
15160;DHT22;7680;48.800;9.680;2023-03-03T11:10:53;9.10;99.90
15160;DHT22;7680;48.800;9.680;2023-03-03T11:13:39;9.30;99.90
15160;DHT22;7680;48.800;9.680;2023-03-03T11:16:39;9.20;99.90
15160;DHT22;7680;48.800;9.680;2023-03-03T11:19:27;9.00;99.90
15160;DHT22;7680;48.800;9.680;2023-03-03T11:22:18;9.00;99.90
15160;DHT22;7680;48.800;9.680;2023-03-03T11:25:02;9.00;99.90
15160;DHT22;7680;48.800;9.680;2023-03-03T11:27:58;8.90;99.90
15160;DHT22;7680;48.800;9.680;2023-03-03T11:30:43;8.90;99.90
15160;DHT22;7680;48.800;9.680;2023-03-03T11:33:25;8.80;99.90
15160;DHT22;7680;48.800;9.680;2023-03-03T11:36:11;9.10;99.90
15160;DHT22;7680;48.800;9.680;2023-03-03T11:38:56;9.20;99.20
15160;DHT22;7680;48.800;9.680;2023-03-03T11:41:34;9.20;99.50
15160;DHT22;7680;48.800;9.680;2023-03-03T11:44:19;9.20;99.50
15160;DHT22;7680;48.800;9.680;2023-03-03T11:46:58;9.40;99.00
15160;DHT22;7680;48.800;9.680;2023-03-03T11:49:37;9.50;99.00
15160;DHT22;7680;48.800;9.680;2023-03-03T11:52:24;9.40;98.40
15160;DHT22;7680;48.800;9.680;2023-03-03T11:55:04;9.50;98.10
15160;DHT22;7680;48.800;9.680;2023-03-03T11:57:42;9.40;98.10
15160;DHT22;7680;48.800;9.680;2023-03-03T12:00:27;9.40;97.70
15160;DHT22;7680;48.800;9.680;2023-03-03T12:03:26;9.40;98.10
15160;DHT22;7680;48.800;9.680;2023-03-03T12:06:11;9.40;98.50
15160;DHT22;7680;48.800;9.680;2023-03-03T12:09:06;9.80;97.80
15160;DHT22;7680;48.800;9.680;2023-03-03T12:11:49;9.70;97.60
15160;DHT22;7680;48.800;9.680;2023-03-03T12:14:42;9.60;97.40
15160;DHT22;7680;48.800;9.680;2023-03-03T12:17:38;9.70;97.30
15160;DHT22;7680;48.800;9.680;2023-03-03T12:20:26;9.80;97.60
15160;DHT22;7680;48.800;9.680;2023-03-03T12:23:12;9.80;97.20
15160;DHT22;7680;48.800;9.680;2023-03-03T12:25:58;9.80;97.00
15160;DHT22;7680;48.800;9.680;2023-03-03T12:28:37;9.80;96.70
15160;DHT22;7680;48.800;9.680;2023-03-03T12:31:35;9.60;96.50
15160;DHT22;7680;48.800;9.680;2023-03-03T12:34:20;9.60;97.20
15160;DHT22;7680;48.800;9.680;2023-03-03T12:37:11;9.80;95.80
15160;DHT22;7680;48.800;9.680;2023-03-03T12:40:02;9.60;96.50
15160;DHT22;7680;48.800;9.680;2023-03-03T12:42:48;9.60;96.50
15160;DHT22;7680;48.800;9.680;2023-03-03T12:45:37;9.60;96.60
15160;DHT22;7680;48.800;9.680;2023-03-03T12:48:21;9.60;96.40
15160;DHT22;7680;48.800;9.680;2023-03-03T12:51:03;9.60;96.30
15160;DHT22;7680;48.800;9.680;2023-03-03T12:54:11;9.70;96.30
15160;DHT22;7680;48.800;9.680;2023-03-03T12:56:53;9.80;96.10
15160;DHT22;7680;48.800;9.680;2023-03-03T12:59:37;9.80;96.10
15160;DHT22;7680;48.800;9.680;2023-03-03T13:02:49;9.90;95.90
15160;DHT22;7680;48.800;9.680;2023-03-03T13:05:39;9.90;95.00
15160;DHT22;7680;48.800;9.680;2023-03-03T13:08:32;9.90;94.70
15160;DHT22;7680;48.800;9.680;2023-03-03T13:11:23;9.90;93.70
15160;DHT22;7680;48.800;9.680;2023-03-03T13:14:11;9.90;93.40
15160;DHT22;7680;48.800;9.680;2023-03-03T13:17:00;9.70;93.50
15160;DHT22;7680;48.800;9.680;2023-03-03T13:19:39;9.70;93.60
15160;DHT22;7680;48.800;9.680;2023-03-03T13:22:18;9.60;93.70
15160;DHT22;7680;48.800;9.680;2023-03-03T13:25:03;9.60;93.70
15160;DHT22;7680;48.800;9.680;2023-03-03T13:27:43;9.80;92.90
15160;DHT22;7680;48.800;9.680;2023-03-03T13:30:21;9.60;93.10
15160;DHT22;7680;48.800;9.680;2023-03-03T13:32:59;9.50;93.80
15160;DHT22;7680;48.800;9.680;2023-03-03T13:35:41;9.50;93.80
15160;DHT22;7680;48.800;9.680;2023-03-03T13:38:20;9.60;94.10
15160;DHT22;7680;48.800;9.680;2023-03-03T13:41:06;9.60;94.10
15160;DHT22;7680;48.800;9.680;2023-03-03T13:43:45;9.60;94.00
15160;DHT22;7680;48.800;9.680;2023-03-03T13:46:29;9.60;94.00
15160;DHT22;7680;48.800;9.680;2023-03-03T13:49:22;9.60;94.10
15160;DHT22;7680;48.800;9.680;2023-03-03T13:52:04;9.60;94.20
15160;DHT22;7680;48.800;9.680;2023-03-03T13:54:55;9.60;94.00
15160;DHT22;7680;48.800;9.680;2023-03-03T13:57:56;9.70;93.60
15160;DHT22;7680;48.800;9.680;2023-03-03T14:00:42;9.70;94.10
15160;DHT22;7680;48.800;9.680;2023-03-03T14:03:53;9.70;94.20
15160;DHT22;7680;48.800;9.680;2023-03-03T14:06:32;9.60;94.10
15160;DHT22;7680;48.800;9.680;2023-03-03T14:09:16;9.70;94.30
15160;DHT22;7680;48.800;9.680;2023-03-03T14:12:01;9.60;94.40
15160;DHT22;7680;48.800;9.680;2023-03-03T14:14:46;9.60;94.30
15160;DHT22;7680;48.800;9.680;2023-03-03T14:17:30;9.60;94.60
15160;DHT22;7680;48.800;9.680;2023-03-03T14:20:15;9.60;94.60
15160;DHT22;7680;48.800;9.680;2023-03-03T14:22:52;9.60;94.60
15160;DHT22;7680;48.800;9.680;2023-03-03T14:25:53;9.60;94.60
15160;DHT22;7680;48.800;9.680;2023-03-03T14:28:37;9.50;94.20
15160;DHT22;7680;48.800;9.680;2023-03-03T14:31:17;9.50;94.30
15160;DHT22;7680;48.800;9.680;2023-03-03T14:33:58;9.60;94.50
15160;DHT22;7680;48.800;9.680;2023-03-03T14:36:37;9.60;94.40
15160;DHT22;7680;48.800;9.680;2023-03-03T14:39:29;9.60;94.60
15160;DHT22;7680;48.800;9.680;2023-03-03T14:42:12;9.60;94.40
15160;DHT22;7680;48.800;9.680;2023-03-03T14:44:53;9.60;94.00
15160;DHT22;7680;48.800;9.680;2023-03-03T14:47:27;9.60;94.30
15160;DHT22;7680;48.800;9.680;2023-03-03T14:50:01;9.60;94.20
15160;DHT22;7680;48.800;9.680;2023-03-03T14:53:15;9.60;94.20
15160;DHT22;7680;48.800;9.680;2023-03-03T14:55:53;9.60;94.10
15160;DHT22;7680;48.800;9.680;2023-03-03T14:58:33;9.60;93.80
15160;DHT22;7680;48.800;9.680;2023-03-03T15:01:21;9.60;94.00
15160;DHT22;7680;48.800;9.680;2023-03-03T15:03:59;9.70;94.00
15160;DHT22;7680;48.800;9.680;2023-03-03T15:06:37;9.60;94.00
15160;DHT22;7680;48.800;9.680;2023-03-03T15:09:33;9.60;93.80
15160;DHT22;7680;48.800;9.680;2023-03-03T15:12:20;9.60;93.80
15160;DHT22;7680;48.800;9.680;2023-03-03T15:15:06;9.60;93.70
15160;DHT22;7680;48.800;9.680;2023-03-03T15:17:54;9.60;93.90
15160;DHT22;7680;48.800;9.680;2023-03-03T15:20:36;9.50;93.80
15160;DHT22;7680;48.800;9.680;2023-03-03T15:23:22;9.50;93.90
15160;DHT22;7680;48.800;9.680;2023-03-03T15:26:09;9.40;93.90
15160;DHT22;7680;48.800;9.680;2023-03-03T15:28:54;9.40;94.10
15160;DHT22;7680;48.800;9.680;2023-03-03T15:31:40;9.40;94.20
15160;DHT22;7680;48.800;9.680;2023-03-03T15:34:26;9.40;93.90
15160;DHT22;7680;48.800;9.680;2023-03-03T15:37:21;9.40;94.30
15160;DHT22;7680;48.800;9.680;2023-03-03T15:40:12;9.30;94.10
15160;DHT22;7680;48.800;9.680;2023-03-03T15:42:56;9.30;94.20
15160;DHT22;7680;48.800;9.680;2023-03-03T15:45:43;9.30;94.00
15160;DHT22;7680;48.800;9.680;2023-03-03T15:48:31;9.30;94.20
15160;DHT22;7680;48.800;9.680;2023-03-03T15:51:19;9.20;94.50
15160;DHT22;7680;48.800;9.680;2023-03-03T15:54:19;9.20;94.60
15160;DHT22;7680;48.800;9.680;2023-03-03T15:57:04;9.10;94.50
15160;DHT22;7680;48.800;9.680;2023-03-03T16:03:20;9.10;95.10
15160;DHT22;7680;48.800;9.680;2023-03-03T16:06:02;9.00;95.20
15160;DHT22;7680;48.800;9.680;2023-03-03T16:08:44;8.90;95.50
15160;DHT22;7680;48.800;9.680;2023-03-03T16:11:27;8.90;95.80
15160;DHT22;7680;48.800;9.680;2023-03-03T16:14:18;8.90;96.30
15160;DHT22;7680;48.800;9.680;2023-03-03T16:17:13;8.80;96.60
15160;DHT22;7680;48.800;9.680;2023-03-03T16:20:03;8.70;95.80
15160;DHT22;7680;48.800;9.680;2023-03-03T16:26:03;8.70;96.10
15160;DHT22;7680;48.800;9.680;2023-03-03T16:28:54;8.60;96.80
15160;DHT22;7680;48.800;9.680;2023-03-03T16:31:41;8.60;96.90
15160;DHT22;7680;48.800;9.680;2023-03-03T16:34:20;8.50;97.60
15160;DHT22;7680;48.800;9.680;2023-03-03T16:37:06;8.40;97.80
15160;DHT22;7680;48.800;9.680;2023-03-03T16:39:51;8.40;98.30
15160;DHT22;7680;48.800;9.680;2023-03-03T16:42:28;8.30;98.60
15160;DHT22;7680;48.800;9.680;2023-03-03T16:45:21;8.20;99.10
15160;DHT22;7680;48.800;9.680;2023-03-03T16:48:15;8.10;98.60
15160;DHT22;7680;48.800;9.680;2023-03-03T16:51:01;8.10;98.70
15160;DHT22;7680;48.800;9.680;2023-03-03T16:53:53;8.00;99.40
15160;DHT22;7680;48.800;9.680;2023-03-03T16:56:35;7.90;99.80
15160;DHT22;7680;48.800;9.680;2023-03-03T16:59:27;7.80;99.50
15160;DHT22;7680;48.800;9.680;2023-03-03T17:05:41;7.60;99.90
15160;DHT22;7680;48.800;9.680;2023-03-03T17:08:26;7.50;99.90
15160;DHT22;7680;48.800;9.680;2023-03-03T17:11:16;7.30;99.90
15160;DHT22;7680;48.800;9.680;2023-03-03T17:14:22;7.30;99.90
15160;DHT22;7680;48.800;9.680;2023-03-03T17:17:08;7.20;99.90
15160;DHT22;7680;48.800;9.680;2023-03-03T17:19:54;7.00;99.90
15160;DHT22;7680;48.800;9.680;2023-03-03T17:22:44;6.90;99.90
15160;DHT22;7680;48.800;9.680;2023-03-03T17:25:28;6.80;99.90
15160;DHT22;7680;48.800;9.680;2023-03-03T17:28:18;6.70;99.90
15160;DHT22;7680;48.800;9.680;2023-03-03T17:31:03;6.60;99.90
15160;DHT22;7680;48.800;9.680;2023-03-03T17:33:54;6.50;99.90
15160;DHT22;7680;48.800;9.680;2023-03-03T17:36:47;6.40;99.90
15160;DHT22;7680;48.800;9.680;2023-03-03T17:39:49;6.30;99.90
15160;DHT22;7680;48.800;9.680;2023-03-03T17:42:37;6.20;99.90